createdAt,value
2017-08-07T00:04:56.495Z,4.10
2017-08-07T00:09:58.259Z,3.80
2017-08-07T00:15:00.023Z,4.63
2017-08-07T00:20:01.829Z,3.70
2017-08-07T00:25:03.583Z,4.70
2017-08-07T00:30:06.465Z,4.73
2017-08-07T00:35:08.226Z,4.33
2017-08-07T00:40:09.997Z,4.03
2017-08-07T00:45:11.769Z,4.53
2017-08-07T00:50:13.651Z,4.90
2017-08-07T00:55:15.458Z,4.73
2017-08-07T01:00:17.232Z,4.27
2017-08-07T01:05:18.980Z,4.40
2017-08-07T01:10:20.800Z,4.43
2017-08-07T01:15:22.537Z,4.47
2017-08-07T01:20:24.250Z,4.53
2017-08-07T01:25:26.018Z,5.23
2017-08-07T01:30:27.749Z,4.63
2017-08-07T01:35:29.791Z,4.63
2017-08-07T01:40:31.530Z,4.40
2017-08-07T01:45:33.296Z,4.50
2017-08-07T01:50:35.103Z,4.90
2017-08-07T01:55:36.873Z,4.50
2017-08-07T02:00:38.725Z,4.53
2017-08-07T02:05:40.433Z,4.23
2017-08-07T02:10:42.248Z,5.20
2017-08-07T02:15:44.118Z,4.80
2017-08-07T02:20:45.928Z,5.07
2017-08-07T02:25:48.435Z,4.57
2017-08-07T02:30:50.208Z,4.40
2017-08-07T02:35:51.981Z,4.70
2017-08-07T02:40:54.452Z,5.07
2017-08-07T02:45:56.203Z,4.40
2017-08-07T02:50:57.923Z,4.47
2017-08-07T02:55:59.658Z,4.70
2017-08-07T03:01:01.464Z,4.87
2017-08-07T03:06:03.922Z,4.27
2017-08-07T03:11:05.640Z,5.30
2017-08-07T03:16:07.429Z,4.90
2017-08-07T03:21:09.191Z,5.00
2017-08-07T03:26:10.943Z,4.97
2017-08-07T03:31:12.780Z,4.60
2017-08-07T03:36:14.683Z,4.40
2017-08-07T03:41:17.151Z,5.40
2017-08-07T03:46:18.892Z,4.87
2017-08-07T03:51:20.622Z,4.70
2017-08-07T03:56:22.314Z,5.20
2017-08-07T04:01:24.054Z,5.17
2017-08-07T04:06:25.801Z,4.80
2017-08-07T04:11:27.604Z,5.00
2017-08-07T04:16:29.318Z,5.10
2017-08-07T04:21:31.071Z,4.63
2017-08-07T04:26:32.806Z,5.50
2017-08-07T04:31:34.571Z,5.10
2017-08-07T04:36:36.347Z,4.90
2017-08-07T04:41:38.101Z,5.43
2017-08-07T04:46:39.886Z,4.70
2017-08-07T04:51:41.734Z,5.47
2017-08-07T04:56:43.540Z,5.90
2017-08-07T05:01:45.360Z,5.37
2017-08-07T05:06:47.156Z,5.60
2017-08-07T05:11:48.895Z,5.90
2017-08-07T05:16:50.634Z,6.27
2017-08-07T05:21:52.380Z,5.73
2017-08-07T05:26:54.217Z,6.57
2017-08-07T05:31:55.966Z,7.10
2017-08-07T05:36:57.713Z,6.70
2017-08-07T05:41:59.523Z,6.37
2017-08-07T05:47:01.248Z,7.10
2017-08-07T05:52:03.026Z,7.07
2017-08-07T05:57:04.800Z,6.97
2017-08-07T06:02:06.604Z,6.77
2017-08-07T06:07:09.075Z,7.00
2017-08-07T06:12:10.802Z,6.00
2017-08-07T06:17:13.303Z,6.83
2017-08-07T06:22:15.063Z,6.30
2017-08-07T06:27:16.829Z,6.60
2017-08-07T06:32:19.311Z,6.00
2017-08-07T06:37:21.792Z,6.07
2017-08-07T06:42:23.513Z,6.37
2017-08-07T06:47:25.228Z,6.03
2017-08-07T06:52:26.996Z,5.17
2017-08-07T06:57:28.739Z,4.97
2017-08-07T07:02:30.468Z,4.77
2017-08-07T07:07:32.217Z,4.60
2017-08-07T07:12:33.962Z,3.50
2017-08-07T07:17:35.742Z,2.60
2017-08-07T07:22:37.475Z,2.63
2017-08-07T07:27:39.959Z,3.03
2017-08-07T07:32:41.699Z,2.53
2017-08-07T07:37:43.443Z,2.60
2017-08-07T07:42:45.242Z,2.30
2017-08-07T07:47:47.043Z,2.50
2017-08-07T07:52:48.802Z,2.53
2017-08-07T07:57:51.306Z,2.13
2017-08-07T08:02:53.455Z,2.03
2017-08-07T08:07:56.826Z,2.27
2017-08-07T08:12:58.570Z,1.93
2017-08-07T08:18:00.342Z,2.40
2017-08-07T08:23:02.121Z,1.90
2017-08-07T08:28:03.835Z,1.67
2017-08-07T08:33:05.561Z,2.17
2017-08-07T08:38:07.305Z,1.90
2017-08-07T08:43:09.034Z,2.27
2017-08-07T08:48:10.767Z,2.47
2017-08-07T08:53:12.530Z,2.07
2017-08-07T08:58:14.302Z,2.30
2017-08-07T09:03:17.044Z,2.47
2017-08-07T09:08:19.554Z,2.13
2017-08-07T09:13:21.334Z,2.33
2017-08-07T09:18:23.059Z,1.90
2017-08-07T09:23:24.828Z,2.10
2017-08-07T09:28:26.595Z,2.90
2017-08-07T09:33:28.335Z,2.20
2017-08-07T09:38:30.894Z,2.10
2017-08-07T09:43:32.632Z,1.93
2017-08-07T09:48:34.382Z,1.97
2017-08-07T09:53:36.138Z,1.77
2017-08-07T09:58:37.877Z,1.47
2017-08-07T10:03:39.597Z,1.50
2017-08-07T10:08:41.345Z,2.10
2017-08-07T10:13:43.086Z,1.43
2017-08-07T10:18:45.602Z,1.57
2017-08-07T10:23:47.410Z,1.60
2017-08-07T10:28:49.212Z,1.80
2017-08-07T10:33:50.968Z,1.80
2017-08-07T10:38:53.504Z,1.43
2017-08-07T10:43:55.244Z,1.80
2017-08-07T10:48:56.971Z,1.70
2017-08-07T10:53:59.451Z,1.70
2017-08-07T10:59:01.177Z,1.40
2017-08-07T11:04:02.923Z,1.30
2017-08-07T11:09:05.387Z,1.70
2017-08-07T11:14:07.857Z,1.83
2017-08-07T11:19:09.621Z,1.33
2017-08-07T11:24:11.378Z,1.43
2017-08-07T11:29:13.150Z,2.00
2017-08-07T11:34:15.035Z,1.83
2017-08-07T11:39:16.786Z,1.80
2017-08-07T11:44:18.538Z,1.67
2017-08-07T11:49:20.328Z,1.40
2017-08-07T11:54:22.076Z,1.60
2017-08-07T11:59:23.806Z,1.90
2017-08-07T12:04:25.565Z,2.13
2017-08-07T12:09:27.317Z,1.20
2017-08-07T12:14:29.792Z,1.60
2017-08-07T12:19:31.530Z,1.50
2017-08-07T12:24:34.009Z,2.00
2017-08-07T12:29:35.741Z,1.27
2017-08-07T12:34:37.478Z,1.40
2017-08-07T12:39:39.953Z,1.30
2017-08-07T12:44:41.759Z,1.63
2017-08-07T12:49:43.494Z,1.50
2017-08-07T12:54:46.058Z,1.30
2017-08-07T12:59:47.818Z,1.37
2017-08-07T13:04:49.555Z,1.30
2017-08-07T13:09:51.303Z,1.27
2017-08-07T13:14:53.058Z,1.57
2017-08-07T13:19:54.785Z,1.60
2017-08-07T13:25:03.388Z,1.50
2017-08-07T13:30:05.117Z,1.20
2017-08-07T13:35:07.581Z,1.37
2017-08-07T13:40:09.336Z,1.30
2017-08-07T13:45:11.089Z,1.10
2017-08-07T13:50:12.826Z,1.37
2017-08-07T13:55:14.543Z,1.20
2017-08-07T14:00:16.308Z,1.30
2017-08-07T14:05:18.116Z,1.50
2017-08-07T14:10:20.638Z,1.20
2017-08-07T14:15:22.369Z,1.30
2017-08-07T14:20:24.097Z,1.33
2017-08-07T14:25:25.830Z,1.50
2017-08-07T14:30:27.557Z,1.60
2017-08-07T14:35:29.354Z,1.40
2017-08-07T14:40:31.065Z,1.40
2017-08-07T14:45:32.765Z,1.10
2017-08-07T14:50:34.493Z,1.40
2017-08-07T14:55:36.233Z,1.40
2017-08-07T15:00:37.966Z,1.30
2017-08-07T15:05:39.836Z,1.20
2017-08-07T15:10:41.559Z,1.30
2017-08-07T15:15:43.285Z,1.20
2017-08-07T15:20:45.034Z,1.50
2017-08-07T15:25:46.794Z,1.67
2017-08-07T15:30:48.655Z,1.50
2017-08-07T15:35:50.413Z,1.40
2017-08-07T15:40:52.158Z,1.83
2017-08-07T15:45:53.892Z,1.93
2017-08-07T15:50:55.639Z,1.63
2017-08-07T15:55:57.363Z,1.97
2017-08-07T16:00:59.834Z,2.70
2017-08-07T16:06:01.617Z,2.00
2017-08-07T16:11:03.367Z,2.00
2017-08-07T16:16:05.091Z,2.40
2017-08-07T16:21:06.815Z,1.77
2017-08-07T16:26:08.533Z,1.80
2017-08-07T16:31:10.996Z,1.80
2017-08-07T16:36:12.726Z,1.47
2017-08-07T16:41:14.502Z,1.70
2017-08-07T16:46:16.830Z,1.50
2017-08-07T16:51:18.590Z,1.27
2017-08-07T16:56:20.339Z,1.40
2017-08-07T17:01:22.806Z,1.30
2017-08-07T17:06:24.583Z,1.53
2017-08-07T17:11:26.307Z,1.83
2017-08-07T17:16:28.031Z,1.40
2017-08-07T17:21:30.512Z,1.63
2017-08-07T17:26:32.246Z,1.90
2017-08-07T17:31:34.002Z,1.83
2017-08-07T17:36:35.750Z,1.80
2017-08-07T17:41:37.485Z,1.80
2017-08-07T17:46:39.210Z,1.57
2017-08-07T17:51:40.958Z,1.90
2017-08-07T17:56:42.674Z,1.77
2017-08-07T18:01:44.399Z,1.50
2017-08-07T18:06:46.193Z,1.73
2017-08-07T18:11:47.990Z,2.17
2017-08-07T18:16:49.758Z,1.70
2017-08-07T18:21:52.234Z,2.10
2017-08-07T18:26:53.971Z,2.00
2017-08-07T18:31:55.720Z,2.40
2017-08-07T18:36:57.469Z,1.83
2017-08-07T18:41:59.207Z,2.13
2017-08-07T18:47:00.952Z,2.03
2017-08-07T18:52:02.687Z,2.20
2017-08-07T18:57:04.445Z,2.70
2017-08-07T19:02:06.172Z,2.43
2017-08-07T19:07:07.967Z,2.40
2017-08-07T19:12:09.710Z,2.50
2017-08-07T19:17:11.460Z,3.57
2017-08-07T19:22:13.194Z,2.23
2017-08-07T19:27:14.950Z,2.50
2017-08-07T19:32:16.711Z,1.90
2017-08-07T19:37:18.478Z,2.80
2017-08-07T19:42:20.225Z,2.50
2017-08-07T19:47:21.970Z,2.13
2017-08-07T19:52:23.741Z,2.80
2017-08-07T19:57:25.477Z,2.83
2017-08-07T20:02:27.940Z,2.13
2017-08-07T20:07:30.482Z,4.27
2017-08-07T20:12:32.220Z,3.17
2017-08-07T20:17:33.960Z,2.50
2017-08-07T20:22:35.703Z,3.40
2017-08-07T20:27:37.446Z,5.43
2017-08-07T20:32:39.178Z,4.37
2017-08-07T20:37:40.945Z,2.40
2017-08-07T20:42:42.736Z,2.90
2017-08-07T20:47:44.479Z,2.87
2017-08-07T20:52:46.206Z,3.90
2017-08-07T20:57:47.974Z,3.00
2017-08-07T21:02:50.468Z,2.53
2017-08-07T21:07:52.298Z,3.13
2017-08-07T21:12:54.097Z,2.80
2017-08-07T21:17:55.877Z,2.80
2017-08-07T21:22:58.354Z,2.60
2017-08-07T21:28:00.067Z,2.17
2017-08-07T21:38:12.996Z,3.00
2017-08-07T21:43:14.980Z,2.83
2017-08-07T21:48:17.536Z,3.00
2017-08-07T21:53:19.306Z,2.67
2017-08-07T21:58:21.042Z,3.13
2017-08-07T22:03:22.900Z,2.27
2017-08-07T22:08:24.677Z,2.70
2017-08-07T22:13:26.400Z,3.23
2017-08-07T22:18:28.133Z,2.73
2017-08-07T22:23:29.848Z,2.40
2017-08-07T22:28:31.600Z,2.37
2017-08-07T22:33:33.333Z,2.87
2017-08-07T22:38:35.790Z,2.80
2017-08-07T22:43:37.524Z,2.40
2017-08-07T22:48:39.242Z,2.70
2017-08-07T22:53:40.977Z,2.53
2017-08-07T22:58:42.672Z,2.90
2017-08-07T23:03:44.432Z,2.80
2017-08-07T23:08:46.930Z,3.27
2017-08-07T23:13:48.709Z,2.80
2017-08-07T23:18:50.438Z,2.90
2017-08-07T23:23:52.166Z,3.13
2017-08-07T23:28:53.898Z,2.70
2017-08-07T23:33:55.626Z,2.97
2017-08-07T23:38:57.382Z,3.10
2017-08-07T23:43:59.126Z,3.37
2017-08-07T23:49:00.867Z,3.30
2017-08-07T23:54:02.610Z,3.03
2017-08-07T23:59:04.343Z,3.00
